Time;durP1;ratioP1;P1;durP2;ratioP2;P2;SDS_P1;SDS_P2;PMS_P1;PMS_P2;Temp;Humidity;BMP_temperature;BMP_pressure;BME280_temperature;BME280_humidity;BME280_pressure;Samples;Min_cycle;Max_cycle;Signal;HPM_P1;HPM_P2
2021/03/15 00:00:51;;;;;;;8.25;3.50;;;20.40;35.90;;;;;;5072727;28;20099;-59
2021/03/15 00:03:18;;;;;;;6.85;3.20;;;20.30;35.90;;;;;;5072631;28;20472;-59
2021/03/15 00:05:43;;;;;;;8.98;3.95;;;20.30;35.90;;;;;;5072566;28;20437;-60
2021/03/15 00:08:09;;;;;;;7.70;3.38;;;20.30;35.90;;;;;;5072420;28;20055;-60
2021/03/15 00:10:35;;;;;;;8.10;3.47;;;20.40;35.90;;;;;;5072601;28;20460;-60
2021/03/15 00:13:02;;;;;;;7.53;3.97;;;20.30;35.90;;;;;;5072287;28;20060;-60
2021/03/15 00:15:27;;;;;;;6.75;3.72;;;20.30;35.90;;;;;;5072125;28;20108;-59
2021/03/15 00:17:53;;;;;;;7.15;3.83;;;20.30;35.90;;;;;;5072252;28;20131;-59
2021/03/15 00:20:20;;;;;;;6.82;3.53;;;20.30;35.90;;;;;;5072892;28;20423;-59
2021/03/15 00:22:47;;;;;;;7.05;3.65;;;20.30;36.00;;;;;;5072813;28;20021;-60
2021/03/15 00:25:15;;;;;;;7.15;3.25;;;20.30;35.90;;;;;;5076036;28;20025;-60
2021/03/15 00:27:41;;;;;;;7.60;3.85;;;20.30;35.90;;;;;;5091375;28;20027;-59
2021/03/15 00:30:10;;;;;;;7.28;3.20;;;20.30;35.90;;;;;;5091573;28;20056;-60
2021/03/15 00:32:37;;;;;;;7.18;3.40;;;20.30;35.90;;;;;;5075551;28;20488;-60
2021/03/15 00:35:05;;;;;;;7.93;3.65;;;20.30;35.90;;;;;;5075555;28;20486;-59
2021/03/15 00:37:31;;;;;;;8.23;3.95;;;20.30;36.00;;;;;;5075606;28;20029;-59
2021/03/15 00:39:56;;;;;;;8.07;4.40;;;20.20;36.00;;;;;;5075929;28;20558;-59
2021/03/15 00:42:22;;;;;;;8.23;3.65;;;20.20;35.90;;;;;;5075823;28;20024;-59
2021/03/15 00:44:47;;;;;;;8.50;3.42;;;20.20;36.00;;;;;;5075647;28;20033;-59
2021/03/15 00:47:13;;;;;;;8.75;4.53;;;20.20;36.00;;;;;;5075538;28;20488;-59
2021/03/15 00:49:39;;;;;;;9.80;4.25;;;20.20;36.00;;;;;;5075642;28;20391;-60
2021/03/15 00:52:05;;;;;;;7.68;4.03;;;20.20;36.00;;;;;;5075474;28;20016;-60
2021/03/15 00:54:30;;;;;;;7.78;4.25;;;20.20;36.10;;;;;;5075262;28;20102;-60
2021/03/15 00:56:56;;;;;;;8.93;4.10;;;20.20;36.00;;;;;;5075317;28;20468;-60
2021/03/15 00:59:21;;;;;;;7.47;3.95;;;20.20;36.10;;;;;;5075514;28;20082;-60
2021/03/15 01:01:47;;;;;;;8.00;4.07;;;20.10;36.10;;;;;;5075399;28;20051;-59
2021/03/15 01:04:14;;;;;;;8.95;4.70;;;20.10;36.10;;;;;;5075588;28;20017;-60
2021/03/15 01:06:41;;;;;;;8.32;4.78;;;20.20;36.10;;;;;;5075283;28;20031;-59
2021/03/15 01:09:07;;;;;;;8.90;4.38;;;20.10;36.10;;;;;;5075313;28;20049;-60
2021/03/15 01:11:33;;;;;;;8.45;4.65;;;20.10;36.10;;;;;;5075206;28;20032;-60
2021/03/15 01:13:59;;;;;;;8.95;4.72;;;20.10;36.10;;;;;;5075017;28;20037;-59
2021/03/15 01:16:24;;;;;;;10.38;4.57;;;20.10;36.20;;;;;;5075052;28;20104;-61
2021/03/15 01:18:50;;;;;;;8.50;4.43;;;20.10;36.20;;;;;;5074717;28;20132;-59
2021/03/15 01:21:16;;;;;;;9.68;5.18;;;20.10;36.20;;;;;;5074845;28;20027;-59
2021/03/15 01:23:41;;;;;;;8.25;4.18;;;20.10;36.20;;;;;;5074894;28;20025;-60
2021/03/15 01:26:07;;;;;;;9.02;4.43;;;20.10;36.20;;;;;;5074893;28;20028;-60
2021/03/15 01:28:33;;;;;;;9.48;4.38;;;20.10;36.20;;;;;;5074833;28;20388;-59
2021/03/15 01:30:59;;;;;;;9.55;4.53;;;20.10;36.20;;;;;;5074734;28;20524;-61
2021/03/15 01:33:26;;;;;;;6.85;4.00;;;20.10;36.20;;;;;;5074555;28;20044;-60
2021/03/15 01:35:51;;;;;;;7.40;3.67;;;20.10;36.20;;;;;;5073545;28;20031;-60
2021/03/15 01:38:17;;;;;;;8.70;4.90;;;20.10;36.20;;;;;;5074791;28;20024;-59
2021/03/15 01:40:43;;;;;;;9.80;4.95;;;20.10;36.30;;;;;;5074699;28;20021;-60
2021/03/15 01:43:09;;;;;;;8.55;4.25;;;20.10;36.20;;;;;;5074774;28;20082;-60
2021/03/15 01:45:35;;;;;;;7.93;4.53;;;20.00;36.30;;;;;;5074702;28;20021;-58
2021/03/15 01:48:03;;;;;;;8.77;4.85;;;20.00;36.30;;;;;;5074339;28;20520;-59
2021/03/15 01:50:29;;;;;;;9.52;5.03;;;20.00;36.30;;;;;;5074293;28;20392;-59
2021/03/15 01:52:55;;;;;;;7.75;3.97;;;20.00;36.30;;;;;;5073969;28;20029;-59
2021/03/15 01:55:22;;;;;;;8.43;4.57;;;20.00;36.30;;;;;;5074480;28;20029;-58
2021/03/15 01:57:48;;;;;;;8.25;4.50;;;20.00;36.30;;;;;;5074798;28;20036;-59
2021/03/15 02:00:15;;;;;;;8.27;4.43;;;20.00;36.30;;;;;;5074410;28;20028;-59
2021/03/15 02:02:45;;;;;;;7.68;4.38;;;20.00;36.30;;;;;;5074134;28;20024;-58
2021/03/15 02:05:12;;;;;;;11.38;5.45;;;20.00;36.40;;;;;;5073983;28;20020;-58
2021/03/15 02:07:37;;;;;;;8.07;4.75;;;20.00;36.40;;;;;;5074013;28;20036;-59
2021/03/15 02:10:05;;;;;;;9.68;5.25;;;20.00;36.40;;;;;;5074033;28;20016;-59
2021/03/15 02:12:51;;;;;;;9.18;4.32;;;20.00;36.40;;;;;;5073658;28;20070;-59
2021/03/15 02:15:28;;;;;;;9.27;4.97;;;20.00;36.40;;;;;;5073906;28;20036;-59
2021/03/15 02:18:12;;;;;;;8.23;4.82;;;20.00;36.40;;;;;;5073904;28;20508;-59
2021/03/15 02:20:49;;;;;;;10.65;4.57;;;19.90;36.40;;;;;;5073846;28;20153;-59
2021/03/15 02:23:25;;;;;;;9.55;5.32;;;20.00;36.50;;;;;;5073775;28;20031;-58
2021/03/15 02:26:28;;;;;;;8.73;4.68;;;19.90;36.40;;;;;;5073640;28;20035;-59
2021/03/15 02:29:12;;;;;;;8.63;4.57;;;20.00;36.40;;;;;;5073669;28;20032;-59
2021/03/15 02:31:50;;;;;;;7.70;4.43;;;19.90;36.40;;;;;;5074072;28;20024;-58
2021/03/15 02:34:40;;;;;;;7.63;4.25;;;19.90;36.50;;;;;;5073521;28;20310;-59
2021/03/15 02:37:08;;;;;;;8.35;4.40;;;19.90;36.50;;;;;;5073466;28;20020;-58
2021/03/15 02:39:39;;;;;;;9.15;4.65;;;19.90;36.50;;;;;;5073630;28;20052;-59
2021/03/15 02:42:09;;;;;;;8.90;4.60;;;19.90;36.50;;;;;;5073535;28;20025;-59
2021/03/15 02:44:36;;;;;;;9.45;3.92;;;19.90;36.50;;;;;;5073462;28;20094;-59
2021/03/15 02:47:10;;;;;;;7.95;4.53;;;19.90;36.50;;;;;;5073083;28;20159;-59
2021/03/15 02:49:36;;;;;;;8.63;4.55;;;19.90;36.50;;;;;;5073378;28;20075;-59
2021/03/15 02:52:03;;;;;;;7.43;4.25;;;19.90;36.50;;;;;;5073422;28;20028;-59
2021/03/15 02:54:31;;;;;;;10.02;4.60;;;19.90;36.50;;;;;;5073619;28;20039;-59
2021/03/15 02:56:59;;;;;;;7.63;4.30;;;19.90;36.50;;;;;;5073323;28;20495;-59
2021/03/15 02:59:27;;;;;;;9.07;4.30;;;19.90;36.50;;;;;;5073211;28;20024;-59
2021/03/15 03:01:54;;;;;;;9.15;4.63;;;19.90;36.50;;;;;;5073000;28;20086;-59
2021/03/15 03:04:21;;;;;;;7.60;4.40;;;19.90;36.50;;;;;;5073465;28;20051;-59
2021/03/15 03:06:49;;;;;;;7.47;4.60;;;19.90;36.50;;;;;;5073275;28;20021;-59
2021/03/15 03:09:17;;;;;;;7.70;4.38;;;19.90;36.50;;;;;;5073171;28;20025;-59
2021/03/15 03:11:44;;;;;;;8.27;4.20;;;19.90;36.50;;;;;;5073184;28;20047;-59
2021/03/15 03:14:11;;;;;;;9.10;4.47;;;19.90;36.50;;;;;;5073139;28;20036;-59
2021/03/15 03:16:39;;;;;;;7.45;4.18;;;19.90;36.50;;;;;;5072959;28;20031;-59
2021/03/15 03:19:07;;;;;;;7.78;4.30;;;19.80;36.50;;;;;;5072963;28;20049;-59
2021/03/15 03:21:34;;;;;;;7.85;3.83;;;19.90;36.50;;;;;;5073274;28;20021;-59
2021/03/15 03:24:02;;;;;;;7.10;4.20;;;19.80;36.50;;;;;;5072869;28;20469;-61
2021/03/15 03:26:29;;;;;;;8.00;4.50;;;19.80;36.50;;;;;;5073140;28;20025;-58
2021/03/15 03:28:56;;;;;;;7.28;4.30;;;19.90;36.60;;;;;;5072994;28;20488;-59
2021/03/15 03:31:25;;;;;;;8.45;4.38;;;19.90;36.60;;;;;;5072842;28;20025;-59
2021/03/15 03:33:51;;;;;;;9.15;4.57;;;19.80;36.50;;;;;;5072758;28;20060;-59
2021/03/15 03:36:18;;;;;;;7.22;4.13;;;19.80;36.50;;;;;;5072744;28;20372;-59
2021/03/15 03:38:43;;;;;;;8.00;4.15;;;19.80;36.50;;;;;;5072812;28;20078;-59
2021/03/15 03:41:10;;;;;;;7.70;4.07;;;19.80;36.50;;;;;;5072589;28;20427;-59
2021/03/15 03:43:36;;;;;;;7.97;4.15;;;19.90;36.50;;;;;;5072435;28;20089;-59
2021/03/15 03:46:03;;;;;;;8.40;4.30;;;19.90;36.50;;;;;;5072456;28;20027;-59
2021/03/15 03:48:30;;;;;;;8.68;4.63;;;19.80;36.50;;;;;;5072579;28;20421;-59
2021/03/15 03:50:56;;;;;;;8.07;4.15;;;19.90;36.50;;;;;;5072959;28;20082;-59
2021/03/15 03:53:27;;;;;;;7.47;4.32;;;19.90;36.50;;;;;;5073226;28;20036;-59
2021/03/15 03:56:07;;;;;;;7.97;4.05;;;19.80;36.50;;;;;;5073086;28;20112;-59
2021/03/15 03:58:44;;;;;;;8.30;4.28;;;19.90;36.50;;;;;;5074552;28;20034;-59
2021/03/15 04:01:11;;;;;;;7.15;4.20;;;19.80;36.50;;;;;;5076650;28;20031;-59
2021/03/15 04:03:38;;;;;;;6.90;4.10;;;19.80;36.60;;;;;;5076823;28;20025;-60
2021/03/15 04:06:09;;;;;;;8.25;5.03;;;19.90;36.60;;;;;;5076597;28;20020;-59
2021/03/15 04:08:55;;;;;;;7.88;4.38;;;19.80;36.60;;;;;;5076599;28;20091;-59
2021/03/15 04:11:25;;;;;;;9.15;4.80;;;19.80;36.60;;;;;;5076446;28;20061;-59
2021/03/15 04:13:54;;;;;;;8.05;4.53;;;19.80;36.60;;;;;;5076270;28;20043;-59
2021/03/15 04:16:34;;;;;;;8.45;4.80;;;19.80;36.60;;;;;;5076364;28;20017;-59
2021/03/15 04:19:05;;;;;;;7.40;4.40;;;19.80;36.60;;;;;;5076199;28;20048;-59
2021/03/15 04:21:32;;;;;;;7.93;4.47;;;19.80;36.60;;;;;;5076097;28;20047;-60
2021/03/15 04:24:01;;;;;;;8.75;4.82;;;19.80;36.60;;;;;;5076187;28;20036;-60
2021/03/15 04:26:27;;;;;;;7.90;4.45;;;19.80;36.60;;;;;;5076012;28;20016;-60
2021/03/15 04:28:57;;;;;;;7.78;4.35;;;19.80;36.60;;;;;;5075965;28;20101;-60
2021/03/15 04:31:23;;;;;;;8.77;4.28;;;19.80;36.60;;;;;;5075849;28;20040;-60
2021/03/15 04:33:50;;;;;;;8.70;4.68;;;19.80;36.60;;;;;;5074592;28;20381;-60
2021/03/15 04:36:17;;;;;;;8.98;5.05;;;19.80;36.60;;;;;;5076230;28;20028;-60
2021/03/15 04:38:44;;;;;;;8.80;4.88;;;19.80;36.60;;;;;;5075649;28;20488;-60
2021/03/15 04:41:10;;;;;;;8.18;4.10;;;19.80;36.60;;;;;;5075585;28;20425;-60
2021/03/15 04:43:39;;;;;;;8.73;4.78;;;19.80;36.60;;;;;;5075418;28;20020;-59
2021/03/15 04:46:06;;;;;;;7.90;4.47;;;19.80;36.60;;;;;;5075436;28;20025;-60
2021/03/15 04:48:32;;;;;;;8.15;4.47;;;19.80;36.60;;;;;;5085260;28;20116;-59
2021/03/15 04:51:05;;;;;;;6.80;4.22;;;19.80;36.60;;;;;;5085197;28;20088;-60
2021/03/15 04:53:37;;;;;;;7.10;3.97;;;19.80;36.60;;;;;;5078063;28;20033;-60
2021/03/15 04:56:06;;;;;;;6.70;4.05;;;19.80;36.60;;;;;;5075845;28;20043;-60
2021/03/15 04:58:34;;;;;;;7.93;4.22;;;19.80;36.60;;;;;;5076072;28;20032;-60
2021/03/15 05:01:03;;;;;;;7.72;4.10;;;19.80;36.60;;;;;;5075962;28;20067;-59
2021/03/15 05:03:30;;;;;;;7.18;4.30;;;19.80;36.60;;;;;;5075675;28;20035;-59
2021/03/15 05:05:57;;;;;;;6.30;3.67;;;19.80;36.60;;;;;;5075701;28;20028;-60
2021/03/15 05:08:27;;;;;;;7.38;4.07;;;19.80;36.60;;;;;;5075447;28;20407;-60
2021/03/15 05:10:54;;;;;;;6.65;3.92;;;19.80;36.60;;;;;;5075426;28;20207;-59
2021/03/15 05:13:20;;;;;;;7.20;3.92;;;19.80;36.60;;;;;;5075253;28;20476;-59
2021/03/15 05:15:46;;;;;;;7.72;3.92;;;19.80;36.50;;;;;;5075627;28;20032;-60
2021/03/15 05:18:14;;;;;;;7.38;3.78;;;19.80;36.50;;;;;;5075219;28;20068;-58
2021/03/15 05:20:41;;;;;;;6.20;3.42;;;19.90;36.50;;;;;;5075604;28;20033;-59
2021/03/15 05:23:09;;;;;;;6.47;3.50;;;20.00;36.50;;;;;;5075341;28;20032;-59
2021/03/15 05:25:38;;;;;;;6.55;3.30;;;19.90;36.40;;;;;;5075590;28;20024;-59
2021/03/15 05:28:06;;;;;;;7.55;4.20;;;20.00;36.40;;;;;;5075059;28;20476;-59
2021/03/15 05:30:34;;;;;;;5.80;3.55;;;20.00;36.30;;;;;;5075124;28;20454;-59
2021/03/15 05:33:02;;;;;;;7.78;4.20;;;20.00;36.20;;;;;;5077102;28;20094;-59
2021/03/15 05:35:29;;;;;;;7.20;4.00;;;20.10;36.20;;;;;;5079834;28;20024;-59
2021/03/15 05:37:55;;;;;;;7.38;3.88;;;20.10;36.20;;;;;;5079958;28;20032;-59
2021/03/15 05:40:23;;;;;;;7.15;3.72;;;20.10;36.20;;;;;;5078336;28;20024;-60
2021/03/15 05:43:15;;;;;;;6.47;3.88;;;20.20;36.10;;;;;;5076814;28;20483;-59
2021/03/15 05:45:57;;;;;;;6.40;3.75;;;20.20;36.20;;;;;;5076327;28;20024;-60
2021/03/15 05:48:31;;;;;;;6.72;3.65;;;20.20;36.10;;;;;;5076643;28;20032;-60
2021/03/15 05:51:20;;;;;;;7.22;3.75;;;20.20;36.10;;;;;;5078563;28;20024;-59
2021/03/15 05:53:48;;;;;;;7.35;4.10;;;20.30;36.10;;;;;;5079399;28;20085;-59
2021/03/15 05:56:17;;;;;;;6.68;3.50;;;20.30;36.10;;;;;;5074738;28;20032;-59
2021/03/15 05:59:07;;;;;;;7.47;3.75;;;20.30;36.10;;;;;;5078801;28;20032;-59
2021/03/15 06:01:54;;;;;;;7.20;4.03;;;20.30;36.10;;;;;;5078038;28;20017;-59
2021/03/15 06:04:35;;;;;;;7.07;3.70;;;20.30;36.10;;;;;;5077386;28;20456;-59
2021/03/15 06:07:06;;;;;;;6.82;3.88;;;20.30;36.10;;;;;;5076186;28;20031;-60
2021/03/15 06:09:56;;;;;;;7.38;4.18;;;20.30;36.10;;;;;;5075877;28;20399;-59
2021/03/15 06:12:29;;;;;;;7.03;4.05;;;20.40;36.10;;;;;;5064023;28;20033;-59
2021/03/15 06:14:55;;;;;;;6.65;3.20;;;20.40;36.00;;;;;;5074411;28;20609;-59
2021/03/15 06:17:21;;;;;;;6.50;3.50;;;20.40;36.10;;;;;;5074241;28;20400;-58
2021/03/15 06:19:50;;;;;;;6.43;3.30;;;20.40;36.10;;;;;;5074764;28;20048;-59
2021/03/15 06:22:17;;;;;;;5.55;3.13;;;20.40;36.00;;;;;;5074279;28;20021;-59
2021/03/15 06:24:42;;;;;;;6.75;3.28;;;20.40;36.00;;;;;;5074398;28;20120;-59
2021/03/15 06:27:09;;;;;;;6.90;3.60;;;20.40;36.10;;;;;;5073781;28;20024;-59
2021/03/15 06:29:35;;;;;;;7.10;3.70;;;20.50;36.00;;;;;;5074264;28;20024;-59
2021/03/15 06:32:01;;;;;;;5.22;2.92;;;20.40;36.00;;;;;;5074262;28;20062;-59
2021/03/15 06:34:29;;;;;;;6.25;3.60;;;20.50;36.00;;;;;;5074395;28;20492;-59
2021/03/15 06:36:56;;;;;;;6.50;3.72;;;20.50;36.00;;;;;;5073994;28;20491;-59
2021/03/15 06:39:22;;;;;;;5.53;3.00;;;20.50;36.00;;;;;;5073816;28;20486;-59
2021/03/15 06:41:51;;;;;;;6.13;3.22;;;20.50;36.00;;;;;;5073803;28;20028;-59
2021/03/15 06:44:17;;;;;;;7.28;3.38;;;20.50;36.00;;;;;;5072324;28;20025;-59
2021/03/15 06:46:43;;;;;;;6.75;3.50;;;20.50;36.00;;;;;;5074126;28;20051;-59
2021/03/15 06:49:09;;;;;;;6.32;3.05;;;20.60;36.00;;;;;;5077180;28;20027;-59
2021/03/15 06:51:35;;;;;;;6.13;3.20;;;20.50;35.90;;;;;;5078456;28;20107;-58
2021/03/15 06:54:00;;;;;;;6.28;3.30;;;20.60;35.90;;;;;;5081306;28;20033;-58
2021/03/15 06:56:26;;;;;;;7.50;3.75;;;20.60;35.90;;;;;;5080124;28;20027;-58
2021/03/15 06:58:53;;;;;;;6.38;3.45;;;20.60;35.90;;;;;;5080622;28;20032;-59
2021/03/15 07:01:20;;;;;;;6.10;3.10;;;20.60;35.90;;;;;;5078360;28;20385;-59
2021/03/15 07:03:48;;;;;;;7.10;3.42;;;20.70;35.90;;;;;;5073832;28;20064;-59
2021/03/15 07:06:17;;;;;;;6.25;3.28;;;20.70;35.90;;;;;;5074422;28;20107;-59
2021/03/15 07:08:43;;;;;;;6.30;3.20;;;20.70;35.90;;;;;;5073978;28;20060;-59
2021/03/15 07:11:19;;;;;;;10.13;3.80;;;20.70;35.80;;;;;;5073433;28;20048;-59
2021/03/15 07:13:45;;;;;;;5.60;2.90;;;20.70;35.80;;;;;;5073816;28;20043;-61
2021/03/15 07:16:25;;;;;;;6.15;2.97;;;20.70;35.80;;;;;;5073724;28;20095;-60
2021/03/15 07:18:51;;;;;;;6.00;2.97;;;20.80;35.80;;;;;;5073392;28;20052;-59
2021/03/15 07:21:30;;;;;;;6.38;2.85;;;20.80;35.80;;;;;;5073451;28;20025;-58
2021/03/15 07:23:58;;;;;;;6.82;3.20;;;20.80;35.80;;;;;;5073185;28;20075;-58
2021/03/15 07:26:25;;;;;;;6.50;3.05;;;20.80;35.80;;;;;;5072939;28;20081;-58
2021/03/15 07:28:52;;;;;;;5.10;2.80;;;20.80;35.80;;;;;;5073276;28;20174;-59
2021/03/15 07:31:21;;;;;;;7.15;3.17;;;20.80;35.90;;;;;;5072905;28;20081;-59
2021/03/15 07:33:55;;;;;;;5.50;2.63;;;20.80;35.80;;;;;;5076583;28;20037;-60
2021/03/15 07:36:25;;;;;;;4.45;2.38;;;20.90;35.90;;;;;;5077431;28;20050;-59
2021/03/15 07:38:51;;;;;;;5.55;2.88;;;20.90;35.80;;;;;;5077004;28;20040;-59
2021/03/15 07:41:19;;;;;;;5.40;2.80;;;20.90;35.90;;;;;;5076765;28;20507;-59
2021/03/15 07:43:45;;;;;;;6.57;2.90;;;20.90;35.90;;;;;;5076851;28;20358;-59
2021/03/15 07:46:18;;;;;;;5.30;2.83;;;20.90;35.90;;;;;;5076936;28;20042;-59
2021/03/15 07:48:43;;;;;;;6.13;2.83;;;20.90;35.90;;;;;;5077031;28;20020;-60
2021/03/15 07:51:10;;;;;;;4.63;2.70;;;20.90;35.90;;;;;;5076706;28;20491;-60
2021/03/15 07:53:49;;;;;;;4.63;2.35;;;20.90;35.90;;;;;;5076726;28;20033;-59
2021/03/15 07:56:22;;;;;;;4.25;2.30;;;20.90;35.90;;;;;;5076844;28;20133;-59
2021/03/15 07:58:51;;;;;;;4.63;2.28;;;20.90;35.90;;;;;;5077039;28;20538;-60
2021/03/15 08:01:17;;;;;;;5.05;2.63;;;20.90;35.90;;;;;;5077517;28;20056;-57
2021/03/15 08:03:43;;;;;;;5.30;2.25;;;21.00;35.90;;;;;;5089448;28;20034;-59
2021/03/15 08:06:10;;;;;;;5.57;2.67;;;20.80;36.20;;;;;;5092199;28;20507;-59
2021/03/15 08:08:37;;;;;;;5.10;2.20;;;20.80;36.30;;;;;;5092646;28;20099;-56
2021/03/15 08:11:05;;;;;;;5.32;2.58;;;20.90;36.20;;;;;;5085820;28;20060;-55
2021/03/15 08:13:38;;;;;;;5.25;2.58;;;20.90;36.10;;;;;;5096265;28;20036;-57
2021/03/15 08:16:05;;;;;;;4.00;2.10;;;21.00;36.10;;;;;;5083505;28;20024;-57
2021/03/15 08:18:32;;;;;;;5.22;2.45;;;21.00;36.00;;;;;;5093410;28;20536;-58
2021/03/15 08:21:08;;;;;;;5.55;2.40;;;21.00;36.00;;;;;;5094922;28;20483;-57
2021/03/15 08:23:42;;;;;;;5.78;2.58;;;21.10;36.00;;;;;;5083677;28;20071;-58
2021/03/15 08:26:09;;;;;;;5.32;2.45;;;21.20;36.10;;;;;;5083102;28;20020;-58
2021/03/15 08:28:37;;;;;;;4.60;2.20;;;21.20;36.00;;;;;;5075716;28;20493;-58
2021/03/15 08:31:23;;;;;;;5.22;2.25;;;21.10;36.00;;;;;;5081859;28;20119;-58
2021/03/15 08:33:50;;;;;;;5.47;2.30;;;21.20;36.10;;;;;;5088299;28;20498;-60
2021/03/15 08:36:16;;;;;;;5.53;2.25;;;21.10;36.10;;;;;;5088148;28;20024;-60
2021/03/15 08:38:42;;;;;;;4.43;2.15;;;21.10;36.10;;;;;;5087039;28;20368;-60
2021/03/15 08:41:09;;;;;;;4.57;2.30;;;21.10;36.20;;;;;;5095886;28;20028;-60
2021/03/15 08:43:38;;;;;;;8.27;2.58;;;21.20;36.20;;;;;;5090125;28;20028;-60
2021/03/15 08:46:06;;;;;;;4.07;1.88;;;21.20;36.20;;;;;;5092699;28;20063;-59
2021/03/15 08:48:38;;;;;;;5.75;2.67;;;21.20;36.20;;;;;;5094795;28;20032;-59
2021/03/15 08:51:12;;;;;;;4.63;2.28;;;21.20;36.20;;;;;;5092756;28;20020;-60
2021/03/15 08:53:37;;;;;;;5.32;2.28;;;21.20;36.20;;;;;;5108192;28;20119;-59
2021/03/15 08:56:13;;;;;;;6.15;2.17;;;21.20;36.30;;;;;;5099689;28;20044;-59
2021/03/15 08:58:46;;;;;;;4.22;1.88;;;21.30;36.20;;;;;;5084342;28;20024;-59
2021/03/15 09:01:16;;;;;;;4.18;2.28;;;21.30;36.20;;;;;;5094153;28;20020;-59
2021/03/15 09:03:48;;;;;;;6.18;2.50;;;21.30;36.20;;;;;;5083096;28;20155;-58
2021/03/15 09:06:14;;;;;;;4.40;1.90;;;21.30;36.20;;;;;;5092451;28;20020;-57
2021/03/15 09:09:06;;;;;;;5.22;2.38;;;21.30;36.20;;;;;;5088034;28;20156;-60
2021/03/15 09:11:37;;;;;;;6.45;2.00;;;21.30;36.20;;;;;;5094216;28;20120;-59
2021/03/15 09:14:20;;;;;;;4.53;2.00;;;21.30;36.30;;;;;;5083726;28;20036;-58
2021/03/15 09:17:13;;;;;;;4.97;2.15;;;21.30;36.30;;;;;;5081722;28;20070;-58
2021/03/15 09:19:39;;;;;;;4.22;1.92;;;21.30;36.20;;;;;;5086186;28;20040;-59
2021/03/15 09:22:20;;;;;;;4.45;1.80;;;21.30;36.30;;;;;;5082384;28;20482;-56
2021/03/15 09:24:58;;;;;;;5.72;2.20;;;21.40;36.20;;;;;;5093739;28;20027;-57
2021/03/15 09:27:30;;;;;;;4.85;2.10;;;21.40;36.20;;;;;;5092877;28;20023;-58
2021/03/15 09:30:11;;;;;;;5.68;2.10;;;21.40;36.20;;;;;;5089427;28;20111;-59
2021/03/15 09:32:56;;;;;;;5.63;2.53;;;21.40;36.20;;;;;;5090087;28;20024;-59
2021/03/15 09:35:33;;;;;;;5.35;1.92;;;21.40;36.10;;;;;;5077980;28;20032;-57
2021/03/15 09:38:07;;;;;;;4.47;1.80;;;21.50;36.20;;;;;;5092127;28;20027;-59
2021/03/15 09:40:46;;;;;;;5.00;2.08;;;21.50;36.20;;;;;;5085011;28;20020;-60
2021/03/15 09:43:23;;;;;;;4.97;1.80;;;21.50;36.20;;;;;;5088706;28;20479;-60
2021/03/15 09:45:56;;;;;;;3.88;1.60;;;21.50;36.10;;;;;;5086108;28;20162;-60
2021/03/15 09:48:23;;;;;;;6.15;1.98;;;21.50;36.10;;;;;;5085124;28;20028;-60
2021/03/15 09:50:51;;;;;;;4.00;1.77;;;21.50;36.10;;;;;;5085242;28;20039;-60
2021/03/15 09:53:17;;;;;;;3.63;1.90;;;21.50;36.10;;;;;;5075379;28;20037;-59
2021/03/15 09:55:43;;;;;;;3.95;1.80;;;21.60;36.10;;;;;;5090262;28;20353;-60
2021/03/15 09:58:14;;;;;;;4.13;1.95;;;21.60;36.10;;;;;;5097209;28;20111;-60
2021/03/15 10:00:40;;;;;;;4.40;1.80;;;21.50;36.10;;;;;;5079999;28;20051;-60
2021/03/15 10:03:06;;;;;;;5.13;2.22;;;21.60;36.10;;;;;;5073876;28;20032;-60
2021/03/15 10:05:31;;;;;;;4.60;2.30;;;21.60;36.10;;;;;;5096536;28;20027;-60
2021/03/15 10:07:57;;;;;;;4.30;2.03;;;21.60;36.10;;;;;;5093362;28;20058;-60
2021/03/15 10:10:25;;;;;;;5.30;2.08;;;21.60;36.10;;;;;;5093535;28;20467;-59
2021/03/15 10:13:01;;;;;;;5.32;1.90;;;21.60;36.10;;;;;;5080723;28;20365;-59
2021/03/15 10:15:26;;;;;;;4.93;2.15;;;21.60;36.10;;;;;;5090586;28;20024;-59
2021/03/15 10:17:52;;;;;;;4.97;2.00;;;21.60;36.20;;;;;;5104709;28;20051;-59
2021/03/15 10:20:23;;;;;;;4.32;1.92;;;21.60;36.10;;;;;;5088871;28;20058;-59
2021/03/15 10:22:49;;;;;;;7.38;2.25;;;21.60;36.10;;;;;;5088214;28;20472;-59
2021/03/15 10:25:15;;;;;;;5.10;2.13;;;21.70;36.10;;;;;;5086123;28;20521;-59
2021/03/15 10:27:52;;;;;;;4.28;1.90;;;21.70;36.00;;;;;;5082089;28;20078;-59
2021/03/15 10:30:17;;;;;;;3.83;1.70;;;21.60;36.10;;;;;;5084454;28;20029;-59
2021/03/15 10:32:43;;;;;;;5.75;1.77;;;21.70;36.00;;;;;;5078148;28;20092;-60
2021/03/15 10:35:09;;;;;;;5.40;1.65;;;21.70;36.10;;;;;;5095714;28;20476;-59
2021/03/15 10:37:37;;;;;;;4.00;1.63;;;21.70;36.10;;;;;;5091276;28;20028;-59
2021/03/15 10:40:05;;;;;;;4.18;1.75;;;21.70;36.00;;;;;;5086713;28;20465;-57
2021/03/15 10:42:32;;;;;;;4.30;1.98;;;21.80;36.00;;;;;;5090669;28;20024;-59
2021/03/15 10:44:59;;;;;;;4.30;1.58;;;21.90;36.00;;;;;;5085130;28;20030;-59
2021/03/15 10:47:33;;;;;;;5.97;1.90;;;22.00;35.80;;;;;;5081622;28;20021;-59
2021/03/15 10:49:59;;;;;;;;;;;22.00;35.70;;;;;;5091953;28;20040;-58
2021/03/15 10:52:26;;;;;;;4.80;1.90;;;22.20;35.50;;;;;;5086013;28;20359;-59
2021/03/15 10:54:52;;;;;;;4.13;1.60;;;22.20;35.60;;;;;;5073178;28;20141;-59
2021/03/15 10:57:20;;;;;;;4.20;1.75;;;22.00;35.70;;;;;;5083786;28;20504;-59
2021/03/15 10:59:48;;;;;;;7.85;2.10;;;22.00;35.90;;;;;;5083962;28;20480;-59
2021/03/15 11:02:21;;;;;;;5.97;1.98;;;21.90;36.10;;;;;;5089481;28;20065;-56
2021/03/15 11:04:58;;;;;;;8.53;2.23;;;21.80;36.20;;;;;;5089572;28;20035;-57
2021/03/15 11:07:36;;;;;;;4.85;1.90;;;21.90;36.10;;;;;;5089304;28;20027;-59
2021/03/15 11:10:06;;;;;;;5.03;1.90;;;21.80;36.10;;;;;;5083832;28;20078;-58
2021/03/15 11:12:41;;;;;;;4.35;1.73;;;21.70;36.30;;;;;;5088136;28;20039;-58
2021/03/15 11:15:06;;;;;;;;;;;21.60;36.50;;;;;;5085154;28;20411;-58
2021/03/15 11:17:32;;;;;;;5.88;1.33;;;21.60;36.60;;;;;;5092606;28;19908;-60
2021/03/15 11:19:58;;;;;;;7.85;1.85;;;21.60;36.60;;;;;;5091723;28;20541;-58
2021/03/15 11:22:23;;;;;;;5.82;2.00;;;21.60;36.60;;;;;;5085775;28;20036;-58
2021/03/15 11:25:06;;;;;;;3.35;1.50;;;21.80;36.70;;;;;;5077421;28;20476;-58
2021/03/15 11:27:32;;;;;;;4.82;2.08;;;21.80;36.70;;;;;;5093179;28;20020;-59
2021/03/15 11:29:58;;;;;;;3.63;1.63;;;21.90;37.00;;;;;;5086865;28;20063;-58
2021/03/15 11:32:24;;;;;;;4.22;1.63;;;21.90;36.90;;;;;;5078504;28;20483;-59
2021/03/15 11:34:50;;;;;;;5.43;2.10;;;21.90;37.00;;;;;;5072769;28;20067;-59
2021/03/15 11:37:24;;;;;;;7.57;2.05;;;21.90;37.10;;;;;;5078089;28;20024;-59
2021/03/15 11:39:50;;;;;;;9.88;1.70;;;22.00;37.30;;;;;;5091974;28;20110;-59
2021/03/15 11:42:28;;;;;;;3.33;1.40;;;22.00;37.30;;;;;;5086034;28;20036;-59
2021/03/15 11:44:53;;;;;;;4.05;1.42;;;22.00;37.40;;;;;;5090992;28;20051;-59
2021/03/15 11:47:19;;;;;;;5.90;2.08;;;22.00;37.40;;;;;;5089682;28;20526;-59
2021/03/15 11:49:45;;;;;;;5.40;1.63;;;22.00;37.50;;;;;;5091507;28;20056;-60
2021/03/15 11:52:10;;;;;;;4.32;1.70;;;22.00;37.50;;;;;;5092043;28;20380;-59
2021/03/15 11:54:36;;;;;;;5.40;1.50;;;22.00;37.70;;;;;;5091654;28;20036;-59
2021/03/15 11:57:02;;;;;;;7.07;1.90;;;22.00;37.90;;;;;;5082961;28;20492;-59
2021/03/15 11:59:28;;;;;;;4.28;1.55;;;22.00;37.80;;;;;;5091353;28;20479;-60
2021/03/15 12:01:53;;;;;;;5.95;1.27;;;22.00;37.90;;;;;;5087142;28;20051;-59
2021/03/15 12:04:19;;;;;;;4.10;1.70;;;21.90;38.00;;;;;;5077622;28;20477;-59
2021/03/15 12:06:45;;;;;;;5.30;1.95;;;21.90;38.10;;;;;;5072383;28;20029;-59
2021/03/15 12:09:10;;;;;;;5.63;1.75;;;21.80;38.20;;;;;;5082913;28;20054;-59
2021/03/15 12:11:36;;;;;;;6.45;2.17;;;21.90;38.10;;;;;;5074310;28;20120;-59
2021/03/15 12:14:02;;;;;;;4.78;1.60;;;21.90;38.10;;;;;;5077794;28;20169;-59
2021/03/15 12:16:27;;;;;;;5.57;1.70;;;22.00;38.10;;;;;;5072239;28;20542;-59
2021/03/15 12:18:56;;;;;;;4.85;1.50;;;22.00;38.20;;;;;;5078161;28;20454;-59
2021/03/15 12:21:22;;;;;;;5.82;1.88;;;22.00;38.20;;;;;;5074944;28;20031;-57
2021/03/15 12:23:48;;;;;;;3.95;1.50;;;22.00;38.20;;;;;;5084012;28;20370;-59
2021/03/15 12:26:13;;;;;;;3.58;1.50;;;22.00;38.10;;;;;;5087306;28;20103;-59
2021/03/15 12:28:39;;;;;;;5.72;1.48;;;21.90;38.20;;;;;;5096056;28;20479;-55
2021/03/15 12:31:05;;;;;;;4.72;1.45;;;21.90;38.30;;;;;;5090309;28;20029;-59
2021/03/15 12:33:31;;;;;;;4.50;1.63;;;22.00;38.30;;;;;;5083452;28;20094;-59
2021/03/15 12:35:56;;;;;;;3.80;1.33;;;22.00;38.20;;;;;;5076866;28;20043;-59
2021/03/15 12:38:22;;;;;;;6.55;1.67;;;22.00;38.20;;;;;;5087976;28;20028;-57
2021/03/15 12:40:47;;;;;;;4.78;1.63;;;22.00;38.30;;;;;;5094418;28;20388;-58
2021/03/15 12:43:14;;;;;;;4.72;1.65;;;22.00;38.30;;;;;;5084786;28;20024;-59
2021/03/15 12:45:40;;;;;;;5.35;1.70;;;22.00;38.30;;;;;;5078100;28;20052;-58
2021/03/15 12:48:05;;;;;;;5.22;1.50;;;22.00;38.20;;;;;;5087914;28;20048;-59
2021/03/15 12:50:31;;;;;;;4.45;1.40;;;22.00;38.30;;;;;;5092842;28;20119;-59
2021/03/15 12:52:57;;;;;;;4.75;2.22;;;22.00;38.20;;;;;;5080768;28;20068;-59
2021/03/15 12:55:23;;;;;;;2.85;1.27;;;22.00;38.30;;;;;;5093496;28;20028;-60
2021/03/15 12:57:48;;;;;;;4.00;1.83;;;22.00;38.30;;;;;;5099428;28;20058;-60